Time;durP1;ratioP1;P1;durP2;ratioP2;P2;SDS_P1;SDS_P2;PMS_P1;PMS_P2;Temp;Humidity;BMP_temperature;BMP_pressure;BME280_temperature;BME280_humidity;BME280_pressure;Samples;Min_cycle;Max_cycle;Signal;HPM_P1;HPM_P2
2021/12/16 00:01:46;;;;;;;41.75;13.25;;;8.10;99.90;;;;;;4954868;28;20054;-83
2021/12/16 00:09:29;;;;;;;37.88;13.18;;;7.70;99.90;;;;;;4955478;28;20051;-82
2021/12/16 00:31:17;;;;;;;41.78;14.02;;;7.50;99.90;;;;;;4955342;28;20050;-83
2021/12/16 00:33:45;;;;;;;43.10;13.30;;;7.50;99.90;;;;;;4969887;28;20053;-83
2021/12/16 00:36:12;;;;;;;33.53;13.80;;;7.50;99.90;;;;;;4971025;28;20450;-84
2021/12/16 00:38:41;;;;;;;38.95;14.77;;;7.50;99.90;;;;;;4970784;28;20590;-83
2021/12/16 00:41:07;;;;;;;38.13;14.07;;;8.00;99.90;;;;;;4954100;28;20043;-83
2021/12/16 00:46:13;;;;;;;39.05;13.70;;;7.50;99.90;;;;;;4954945;28;20134;-84
2021/12/16 00:54:15;;;;;;;35.22;13.40;;;7.60;99.90;;;;;;4954618;28;20562;-83
2021/12/16 00:56:50;;;;;;;37.05;12.98;;;7.60;99.90;;;;;;4965702;28;20141;-83
2021/12/16 00:59:18;;;;;;;46.00;12.93;;;7.70;99.90;;;;;;4973867;28;20042;-83
2021/12/16 01:01:54;;;;;;;40.70;12.88;;;7.70;99.90;;;;;;4973152;28;20046;-83
2021/12/16 01:35:01;;;;;;;36.65;11.07;;;8.30;99.90;;;;;;4973029;28;20046;-84
2021/12/16 01:37:59;;;;;;;46.38;11.38;;;8.50;99.90;;;;;;4988355;28;20093;-83
2021/12/16 01:40:31;;;;;;;30.88;10.35;;;8.80;99.90;;;;;;4973469;28;20145;-83
2021/12/16 01:45:59;;;;;;;28.90;9.45;;;8.30;99.90;;;;;;4972196;28;20056;-83
2021/12/16 01:49:04;;;;;;;35.90;10.15;;;8.40;99.90;;;;;;4972265;28;20042;-83
2021/12/16 01:51:21;;;;;;;28.27;10.00;;;9.00;99.90;;;;;;4972364;28;20065;-83
2021/12/16 01:54:28;;;;;;;27.73;9.68;;;8.40;99.90;;;;;;4972602;28;20054;-83
2021/12/16 01:56:53;;;;;;;27.92;10.05;;;8.50;99.90;;;;;;4972060;28;20055;-83
2021/12/16 01:59:22;;;;;;;23.98;8.60;;;8.40;99.90;;;;;;4972207;28;20051;-83
2021/12/16 02:01:53;;;;;;;32.15;9.93;;;8.40;99.90;;;;;;4988107;28;20133;-83
2021/12/16 02:04:27;;;;;;;29.40;8.95;;;8.40;99.90;;;;;;4956333;28;20124;-84
2021/12/16 02:09:30;;;;;;;27.23;9.30;;;8.80;99.90;;;;;;4972363;28;20054;-83
2021/12/16 02:12:07;;;;;;;22.88;8.70;;;8.50;99.90;;;;;;4972782;28;20036;-83
2021/12/16 02:28:41;;;;;;;29.77;8.90;;;8.70;99.90;;;;;;4971357;28;20133;-83
2021/12/16 02:31:27;;;;;;;34.47;8.55;;;8.50;99.90;;;;;;4972747;28;20078;-83
2021/12/16 02:34:21;;;;;;;30.67;8.70;;;8.50;99.90;;;;;;4987200;28;20050;-83
2021/12/16 02:36:47;;;;;;;31.40;9.07;;;9.00;99.90;;;;;;4987994;28;20050;-83
2021/12/16 02:39:19;;;;;;;34.95;9.45;;;9.30;99.90;;;;;;4971951;28;20046;-83
2021/12/16 02:41:48;;;;;;;26.85;8.88;;;8.50;99.90;;;;;;4970678;28;20039;-83
2021/12/16 02:44:29;;;;;;;31.55;9.45;;;8.50;99.90;;;;;;4972177;28;20123;-84
2021/12/16 02:49:47;;;;;;;31.35;9.77;;;8.40;99.90;;;;;;4971207;28;20050;-83
2021/12/16 02:52:14;;;;;;;32.45;10.18;;;8.80;99.90;;;;;;4987854;28;20049;-83
2021/12/16 02:54:40;;;;;;;28.85;9.43;;;8.30;99.90;;;;;;4971223;28;20092;-83
2021/12/16 02:57:06;;;;;;;33.85;9.60;;;8.30;99.90;;;;;;4955267;28;20120;-83
2021/12/16 02:59:33;;;;;;;33.05;9.32;;;8.20;99.90;;;;;;4971379;28;20153;-83
2021/12/16 03:02:06;;;;;;;37.85;10.20;;;8.20;99.90;;;;;;4970098;28;20104;-83
2021/12/16 03:04:34;;;;;;;36.65;9.82;;;8.70;99.90;;;;;;4987877;28;20035;-83
2021/12/16 03:07:01;;;;;;;25.58;9.32;;;8.20;99.90;;;;;;4971330;28;20145;-83
2021/12/16 03:14:49;;;;;;;31.80;9.55;;;8.00;99.90;;;;;;4971596;28;20062;-83
2021/12/16 03:17:23;;;;;;;24.85;8.60;;;7.90;99.90;;;;;;4969581;28;20053;-83
2021/12/16 03:22:42;;;;;;;29.15;9.45;;;7.90;99.90;;;;;;4970681;28;20057;-83
2021/12/16 03:27:59;;;;;;;33.70;9.52;;;7.70;99.90;;;;;;4971227;28;20050;-83
2021/12/16 03:30:45;;;;;;;29.65;9.27;;;7.60;99.90;;;;;;4970306;28;20046;-83
2021/12/16 03:33:30;;;;;;;27.20;8.95;;;7.90;99.90;;;;;;4970367;28;20053;-84
2021/12/16 03:36:08;;;;;;;33.28;9.35;;;8.30;99.90;;;;;;4992148;28;20076;-83
2021/12/16 03:38:37;;;;;;;24.48;8.93;;;7.50;99.90;;;;;;4974165;28;20080;-83
2021/12/16 03:41:06;;;;;;;25.90;9.65;;;7.30;99.90;;;;;;4975229;28;20054;-83
2021/12/16 03:43:34;;;;;;;32.95;10.05;;;7.40;99.90;;;;;;4974919;28;20042;-82
2021/12/16 03:48:45;;;;;;;30.17;10.35;;;7.40;99.90;;;;;;4974550;28;20053;-83
2021/12/16 03:51:17;;;;;;;35.92;11.40;;;7.40;99.90;;;;;;4974639;28;20113;-83
2021/12/16 03:53:45;;;;;;;34.63;9.77;;;7.50;99.90;;;;;;4974630;28;20512;-82
2021/12/16 03:56:11;;;;;;;36.45;10.75;;;7.40;99.90;;;;;;4991625;28;20062;-82
2021/12/16 03:58:38;;;;;;;28.50;9.82;;;7.50;99.90;;;;;;4974246;28;20054;-82
2021/12/16 04:01:07;;;;;;;28.63;9.38;;;7.90;99.90;;;;;;4991259;28;20043;-83
2021/12/16 04:03:33;;;;;;;39.25;9.95;;;7.50;99.90;;;;;;4957779;28;20046;-83
2021/12/16 04:05:59;;;;;;;29.27;8.88;;;7.20;99.90;;;;;;4974340;28;20097;-83
2021/12/16 04:08:25;;;;;;;28.73;10.50;;;7.10;99.90;;;;;;4974876;28;20042;-82
2021/12/16 04:11:03;;;;;;;29.27;10.05;;;7.20;99.90;;;;;;4958410;28;20057;-83
2021/12/16 04:13:29;;;;;;;34.72;9.00;;;7.00;99.90;;;;;;4973723;28;20077;-83
2021/12/16 04:15:55;;;;;;;30.40;9.57;;;6.90;99.90;;;;;;4974677;28;20085;-83
2021/12/16 04:18:21;;;;;;;33.25;10.60;;;7.30;99.90;;;;;;4957688;28;20498;-83
2021/12/16 04:20:47;;;;;;;28.85;11.00;;;6.80;99.90;;;;;;4957392;28;20053;-83
2021/12/16 04:23:14;;;;;;;31.52;12.35;;;6.90;99.90;;;;;;4974354;28;20138;-83
2021/12/16 04:25:43;;;;;;;36.83;12.07;;;7.10;99.90;;;;;;4974537;28;20097;-83
2021/12/16 04:28:21;;;;;;;43.80;13.32;;;7.00;99.90;;;;;;4957799;28;20402;-83
2021/12/16 04:30:47;;;;;;;36.45;12.45;;;7.10;99.90;;;;;;4974118;28;20074;-83
2021/12/16 04:33:13;;;;;;;41.17;13.80;;;7.40;99.90;;;;;;4972688;28;20085;-83
2021/12/16 04:35:39;;;;;;;37.45;12.43;;;7.10;99.90;;;;;;4974165;28;20057;-83
2021/12/16 04:38:06;;;;;;;43.38;12.50;;;7.10;99.90;;;;;;4974781;28;20093;-83
2021/12/16 04:40:35;;;;;;;32.88;11.82;;;7.10;99.90;;;;;;4989078;28;20086;-83
2021/12/16 04:43:02;;;;;;;31.65;11.60;;;7.60;99.90;;;;;;4990502;28;20042;-83
2021/12/16 04:45:30;;;;;;;33.30;12.10;;;7.10;99.90;;;;;;4972834;28;20405;-83
2021/12/16 04:47:55;;;;;;;37.78;12.07;;;7.60;99.90;;;;;;4972948;28;20399;-83
2021/12/16 04:50:23;;;;;;;36.35;11.57;;;7.00;99.90;;;;;;4974006;28;20451;-82
2021/12/16 04:52:49;;;;;;;35.50;10.65;;;7.60;99.90;;;;;;4973388;28;20042;-83
2021/12/16 04:55:17;;;;;;;37.45;11.63;;;6.90;99.90;;;;;;4957101;28;20053;-83
2021/12/16 04:57:43;;;;;;;33.90;11.73;;;6.90;99.90;;;;;;4973321;28;20138;-83
2021/12/16 05:00:12;;;;;;;33.92;11.63;;;7.00;99.90;;;;;;4974141;28;20050;-83
2021/12/16 05:02:39;;;;;;;39.22;13.07;;;6.70;99.90;;;;;;4972036;28;20093;-83
2021/12/16 05:05:05;;;;;;;31.80;12.35;;;6.60;99.90;;;;;;4974072;28;20108;-83
2021/12/16 05:07:32;;;;;;;34.10;11.50;;;6.50;99.90;;;;;;4973111;28;20057;-83
2021/12/16 05:12:26;;;;;;;23.52;10.80;;;6.80;99.90;;;;;;4973186;28;20088;-83
2021/12/16 05:14:52;;;;;;;25.67;9.70;;;6.30;99.90;;;;;;4957060;28;20054;-83
2021/12/16 05:17:29;;;;;;;32.30;9.77;;;6.20;99.90;;;;;;4988300;28;20475;-83
2021/12/16 05:19:59;;;;;;;30.70;10.68;;;6.70;99.90;;;;;;4990130;28;20058;-83
2021/12/16 05:25:19;;;;;;;43.22;10.57;;;5.90;99.90;;;;;;4973245;28;20058;-83
2021/12/16 05:27:45;;;;;;;27.85;10.40;;;5.90;99.90;;;;;;4973090;28;20446;-83
2021/12/16 05:30:11;;;;;;;43.45;14.43;;;6.40;99.90;;;;;;4972426;28;20157;-83
2021/12/16 05:32:37;;;;;;;49.33;15.50;;;6.00;99.90;;;;;;4972498;28;20079;-83
2021/12/16 05:35:03;;;;;;;53.08;18.17;;;6.10;99.90;;;;;;4972886;28;20038;-83
2021/12/16 05:37:29;;;;;;;43.58;17.80;;;6.20;99.90;;;;;;4972092;28;20046;-83
2021/12/16 05:39:55;;;;;;;47.78;17.73;;;6.40;99.90;;;;;;4975214;28;20064;-81
2021/12/16 05:42:20;;;;;;;46.45;17.30;;;6.50;99.90;;;;;;4975047;28;20132;-82
2021/12/16 05:44:46;;;;;;;46.50;17.27;;;6.60;99.90;;;;;;4991574;28;20069;-82
2021/12/16 05:47:12;;;;;;;41.83;16.55;;;6.70;99.90;;;;;;4974488;28;20497;-82
2021/12/16 05:49:38;;;;;;;49.08;16.05;;;7.60;99.90;;;;;;4976526;28;20054;-82
2021/12/16 05:52:04;;;;;;;37.72;15.43;;;7.20;99.90;;;;;;4992029;28;20068;-82
2021/12/16 05:54:29;;;;;;;44.95;16.30;;;6.80;99.90;;;;;;4975726;28;20108;-82
2021/12/16 05:56:55;;;;;;;50.22;16.70;;;6.90;99.90;;;;;;4976248;28;20062;-82
2021/12/16 05:59:21;;;;;;;51.08;15.15;;;6.80;99.90;;;;;;4991293;28;20802;-82
2021/12/16 06:01:49;;;;;;;43.92;14.60;;;7.30;99.90;;;;;;4991741;28;20512;-82
2021/12/16 06:04:15;;;;;;;42.28;15.05;;;6.80;99.90;;;;;;4976587;28;20046;-82
2021/12/16 06:06:41;;;;;;;39.42;14.00;;;7.50;99.90;;;;;;4975708;28;20045;-82
2021/12/16 06:09:08;;;;;;;43.65;14.57;;;6.80;99.90;;;;;;4972990;28;20434;-82
2021/12/16 06:11:37;;;;;;;41.92;15.55;;;7.20;99.90;;;;;;4971652;28;20052;-82
2021/12/16 06:14:20;;;;;;;33.30;12.93;;;6.80;99.90;;;;;;4972975;28;20054;-82
2021/12/16 06:27:34;;;;;;;46.45;14.35;;;6.80;99.90;;;;;;4971338;28;20054;-82
2021/12/16 06:30:02;;;;;;;34.20;13.50;;;6.80;99.90;;;;;;4972423;28;20069;-83
2021/12/16 06:32:28;;;;;;;46.33;13.70;;;7.00;99.90;;;;;;4970809;28;20126;-82
2021/12/16 06:34:54;;;;;;;42.83;15.60;;;6.80;99.90;;;;;;4972153;28;20176;-82
2021/12/16 06:37:21;;;;;;;45.60;15.32;;;6.80;99.90;;;;;;4971876;28;20053;-82
2021/12/16 06:39:48;;;;;;;34.47;14.55;;;6.80;99.90;;;;;;4971378;28;20043;-82
2021/12/16 06:42:14;;;;;;;42.25;16.27;;;6.90;99.90;;;;;;4971241;28;20089;-82
2021/12/16 06:44:47;;;;;;;44.88;14.18;;;6.90;99.90;;;;;;4972196;28;20050;-82
2021/12/16 06:47:19;;;;;;;42.38;15.52;;;6.90;99.90;;;;;;4965590;28;20047;-82
2021/12/16 06:49:48;;;;;;;43.47;16.95;;;6.90;99.90;;;;;;4940543;28;20085;-82
2021/12/16 06:52:17;;;;;;;40.22;14.98;;;6.90;99.90;;;;;;4955843;28;20050;-82
2021/12/16 06:57:33;;;;;;;48.42;15.85;;;6.80;99.90;;;;;;4971417;28;20061;-82
2021/12/16 07:00:11;;;;;;;47.30;16.05;;;7.30;99.90;;;;;;4972175;28;20055;-82
2021/12/16 07:02:50;;;;;;;43.88;15.07;;;6.80;99.90;;;;;;4954184;28;20042;-81
2021/12/16 07:05:18;;;;;;;42.58;14.05;;;6.70;99.90;;;;;;4971591;28;20053;-81
2021/12/16 07:07:45;;;;;;;48.85;16.35;;;6.70;99.90;;;;;;4954533;28;20053;-82
2021/12/16 07:10:13;;;;;;;40.13;15.02;;;7.40;99.90;;;;;;4955079;28;20509;-82
2021/12/16 07:12:46;;;;;;;47.50;16.80;;;6.80;99.90;;;;;;4955258;28;20116;-82
2021/12/16 07:15:15;;;;;;;48.47;16.15;;;7.30;99.90;;;;;;4954803;28;20053;-82
2021/12/16 07:17:42;;;;;;;48.63;16.20;;;6.90;99.90;;;;;;4954223;28;20042;-82
2021/12/16 07:20:13;;;;;;;44.72;16.08;;;6.70;99.90;;;;;;4955386;28;20176;-82
2021/12/16 07:22:39;;;;;;;49.25;17.13;;;6.70;99.90;;;;;;4954079;28;20042;-82
2021/12/16 07:25:06;;;;;;;53.85;17.27;;;6.70;99.90;;;;;;4971798;28;20153;-82
2021/12/16 07:27:34;;;;;;;49.20;16.73;;;6.80;99.90;;;;;;4954937;28;20034;-82
2021/12/16 07:30:00;;;;;;;48.97;16.88;;;6.80;99.90;;;;;;4955196;28;20034;-82
2021/12/16 07:32:26;;;;;;;57.75;16.27;;;6.80;99.90;;;;;;4970619;28;20041;-83
2021/12/16 07:34:52;;;;;;;46.13;15.88;;;6.70;99.90;;;;;;4970875;28;20402;-83
2021/12/16 07:37:18;;;;;;;44.33;16.10;;;7.70;99.90;;;;;;4970564;28;20133;-83
2021/12/16 07:39:45;;;;;;;44.35;16.10;;;7.00;99.90;;;;;;4987585;28;20046;-82
2021/12/16 07:42:14;;;;;;;52.15;16.80;;;6.70;99.90;;;;;;4963146;28;20057;-83
2021/12/16 07:44:40;;;;;;;54.90;17.83;;;7.00;99.90;;;;;;4988267;28;20042;-83
2021/12/16 07:47:10;;;;;;;61.03;16.65;;;7.20;99.90;;;;;;4972469;28;20113;-81
2021/12/16 07:49:40;;;;;;;54.63;18.20;;;7.00;99.90;;;;;;4971692;28;20076;-81
2021/12/16 07:52:12;;;;;;;49.92;16.10;;;6.80;99.90;;;;;;4986120;28;20516;-81
2021/12/16 07:54:38;;;;;;;51.35;17.23;;;6.70;99.90;;;;;;4970549;28;20275;-82
2021/12/16 07:57:04;;;;;;;56.42;18.17;;;7.60;99.90;;;;;;4939459;28;20049;-82
2021/12/16 07:59:32;;;;;;;42.67;17.85;;;6.80;99.90;;;;;;4983981;28;20624;-83
2021/12/16 08:01:59;;;;;;;58.28;18.50;;;6.80;99.90;;;;;;4935165;28;20042;-82
2021/12/16 08:04:29;;;;;;;41.85;14.70;;;7.10;99.90;;;;;;4968601;28;20070;-82
2021/12/16 08:06:59;;;;;;;38.40;14.43;;;6.70;99.90;;;;;;4947955;28;20045;-82
2021/12/16 08:09:25;;;;;;;39.38;15.55;;;6.60;99.90;;;;;;4954308;28;20046;-83
2021/12/16 08:11:52;;;;;;;42.10;16.02;;;6.70;99.90;;;;;;4934570;28;20047;-82
2021/12/16 08:14:19;;;;;;;47.25;16.63;;;6.50;99.90;;;;;;4934925;28;20549;-82
2021/12/16 08:16:45;;;;;;;53.58;17.02;;;6.50;99.90;;;;;;4956806;28;20061;-82
2021/12/16 08:19:11;;;;;;;45.45;15.55;;;7.40;99.90;;;;;;4963110;28;20052;-82
2021/12/16 08:21:38;;;;;;;39.15;16.15;;;7.20;99.90;;;;;;4947699;28;20046;-82
2021/12/16 08:24:07;;;;;;;53.92;17.83;;;6.40;99.90;;;;;;4955294;28;20050;-82
2021/12/16 08:26:35;;;;;;;40.25;16.60;;;6.40;99.90;;;;;;4937483;28;20057;-81
2021/12/16 08:29:01;;;;;;;48.50;17.92;;;6.40;99.90;;;;;;4939273;28;20396;-81
2021/12/16 08:31:28;;;;;;;54.00;16.90;;;6.40;99.90;;;;;;4955393;28;20418;-82
2021/12/16 08:33:53;;;;;;;64.97;20.42;;;7.20;99.90;;;;;;4945289;28;20097;-82
2021/12/16 08:36:19;;;;;;;63.53;20.17;;;6.50;99.90;;;;;;4939406;28;20423;-82
2021/12/16 08:38:46;;;;;;;55.40;19.27;;;6.50;99.90;;;;;;4939123;28;20064;-82
2021/12/16 08:41:17;;;;;;;50.03;17.90;;;6.60;99.90;;;;;;4954666;28;20053;-82
2021/12/16 08:43:44;;;;;;;48.47;18.92;;;7.40;99.90;;;;;;4964676;28;20545;-82
2021/12/16 08:46:14;;;;;;;71.72;22.52;;;6.70;99.90;;;;;;4947316;28;20093;-82
2021/12/16 08:48:42;;;;;;;75.57;23.88;;;6.80;99.90;;;;;;4926232;28;20050;-82
2021/12/16 08:51:09;;;;;;;78.32;24.58;;;6.90;99.90;;;;;;4955458;28;20824;-82
2021/12/16 08:53:35;;;;;;;61.95;23.75;;;7.30;99.90;;;;;;4953555;28;20407;-82
2021/12/16 08:56:04;;;;;;;69.35;24.13;;;7.90;99.90;;;;;;4955443;28;20055;-84
2021/12/16 08:58:31;;;;;;;74.00;24.77;;;7.20;99.90;;;;;;4954297;28;20051;-82
2021/12/16 09:01:03;;;;;;;66.75;22.83;;;7.30;99.90;;;;;;4954854;28;20181;-82
2021/12/16 09:03:30;;;;;;;61.17;22.25;;;7.30;99.90;;;;;;4953400;28;20089;-83
2021/12/16 09:05:56;;;;;;;69.45;23.98;;;8.10;99.90;;;;;;4939130;28;20505;-82
2021/12/16 09:08:21;;;;;;;62.13;24.05;;;8.00;99.90;;;;;;4937881;28;20039;-83
2021/12/16 09:10:48;;;;;;;72.72;23.50;;;7.50;99.90;;;;;;4954736;28;20058;-83
2021/12/16 09:13:17;;;;;;;92.22;24.80;;;7.80;99.90;;;;;;4954808;28;20442;-82
2021/12/16 09:15:51;;;;;;;81.00;25.13;;;8.50;99.90;;;;;;4953368;28;20134;-82
2021/12/16 09:18:22;;;;;;;84.32;24.45;;;7.50;99.90;;;;;;4953907;28;20129;-83
2021/12/16 09:20:47;;;;;;;90.70;27.30;;;7.50;99.90;;;;;;4954899;28;20491;-82
2021/12/16 09:23:15;;;;;;;107.60;30.40;;;7.50;99.90;;;;;;4953981;28;20066;-83
2021/12/16 09:25:44;;;;;;;117.05;28.13;;;7.80;99.90;;;;;;4954284;28;20497;-82
2021/12/16 09:28:10;;;;;;;106.82;29.67;;;7.60;99.90;;;;;;4938685;28;20046;-82
2021/12/16 09:30:37;;;;;;;94.50;27.65;;;7.60;99.90;;;;;;4937046;28;20509;-83
2021/12/16 09:33:12;;;;;;;94.22;28.30;;;7.60;99.90;;;;;;4952818;28;20085;-83
2021/12/16 09:35:39;;;;;;;102.88;28.48;;;7.70;99.90;;;;;;4953283;28;20055;-83
2021/12/16 09:38:07;;;;;;;122.97;30.70;;;7.80;99.90;;;;;;4954629;28;20462;-83
2021/12/16 09:40:36;;;;;;;109.10;30.73;;;7.80;99.90;;;;;;4953775;28;20134;-83
2021/12/16 09:43:04;;;;;;;130.63;30.67;;;7.80;99.90;;;;;;4953308;28;20046;-83
2021/12/16 09:45:29;;;;;;;158.57;34.47;;;8.80;99.90;;;;;;4969695;28;20403;-83
2021/12/16 09:47:55;;;;;;;179.52;33.30;;;8.20;99.90;;;;;;4953131;28;20050;-83
2021/12/16 09:50:25;;;;;;;210.02;36.38;;;8.50;99.90;;;;;;4936593;28;20054;-83
2021/12/16 09:52:51;;;;;;;144.30;33.25;;;8.00;99.90;;;;;;4969744;28;20133;-83
2021/12/16 09:55:17;;;;;;;165.95;34.38;;;8.10;99.90;;;;;;4969727;28;20821;-84
2021/12/16 09:57:43;;;;;;;159.27;33.60;;;8.00;99.90;;;;;;4988013;28;20553;-83
2021/12/16 10:00:14;;;;;;;188.82;33.80;;;8.10;99.90;;;;;;4973285;28;20042;-83
2021/12/16 10:02:40;;;;;;;247.52;33.22;;;8.10;99.90;;;;;;4972060;28;20058;-84
2021/12/16 10:05:08;;;;;;;242.65;34.35;;;8.10;99.90;;;;;;4972765;28;20050;-83
2021/12/16 10:07:34;;;;;;;207.55;34.30;;;8.10;99.90;;;;;;4972391;28;20109;-83
2021/12/16 10:10:05;;;;;;;238.48;32.10;;;8.20;99.90;;;;;;4972971;28;20550;-83
2021/12/16 10:12:37;;;;;;;169.43;27.80;;;8.70;99.90;;;;;;4971719;28;20047;-83
2021/12/16 10:17:21;;;;;;;173.20;31.10;;;8.70;99.90;;;;;;4972812;28;20498;-83
2021/12/16 10:17:51;;;;;;;189.20;30.50;;;8.20;99.90;;;;;;4970712;28;20057;-83
2021/12/16 10:20:23;;;;;;;257.08;34.70;;;8.70;99.90;;;;;;4972841;28;20058;-83
2021/12/16 10:22:51;;;;;;;264.02;36.22;;;8.20;99.90;;;;;;4955958;28;20050;-83
2021/12/16 10:25:26;;;;;;;217.57;33.08;;;8.50;99.90;;;;;;4988194;28;20133;-83
2021/12/16 10:27:52;;;;;;;208.10;34.55;;;8.40;99.90;;;;;;4988535;28;20057;-83
2021/12/16 10:30:18;;;;;;;232.13;34.42;;;8.20;99.90;;;;;;4972659;28;20054;-83
2021/12/16 10:32:48;;;;;;;173.07;33.55;;;8.70;99.90;;;;;;4970644;28;20263;-83
2021/12/16 10:35:15;;;;;;;212.13;33.88;;;9.00;99.90;;;;;;4988185;28;20077;-83
2021/12/16 10:37:50;;;;;;;226.90;36.42;;;8.40;99.90;;;;;;4971484;28;20046;-83
2021/12/16 10:40:35;;;;;;;193.45;32.35;;;8.30;99.90;;;;;;4970938;28;20088;-83
2021/12/16 10:43:07;;;;;;;238.15;36.83;;;8.30;99.90;;;;;;4987534;28;20057;-83
2021/12/16 10:45:41;;;;;;;198.90;36.67;;;8.90;99.90;;;;;;4971787;28;20602;-83
2021/12/16 10:48:18;;;;;;;209.20;32.63;;;8.90;99.90;;;;;;4971620;28;20399;-83
2021/12/16 10:50:53;;;;;;;163.00;33.40;;;8.80;99.90;;;;;;4971669;28;20434;-83
2021/12/16 10:53:51;;;;;;;240.02;37.85;;;8.40;99.90;;;;;;4973364;28;20100;-82
2021/12/16 10:56:21;;;;;;;266.60;39.58;;;8.40;99.90;;;;;;4991237;28;20064;-83
2021/12/16 10:59:02;;;;;;;195.98;34.13;;;9.20;99.90;;;;;;4990517;28;20496;-83
2021/12/16 11:01:32;;;;;;;195.68;34.30;;;8.40;99.90;;;;;;4989861;28;20060;-83
2021/12/16 11:03:58;;;;;;;187.88;33.40;;;8.50;99.90;;;;;;4974485;28;20128;-83
2021/12/16 11:06:37;;;;;;;186.55;32.38;;;8.50;99.90;;;;;;4974679;28;20147;-83
2021/12/16 11:09:28;;;;;;;121.45;29.70;;;8.50;99.90;;;;;;4973729;28;20489;-83
2021/12/16 11:12:08;;;;;;;198.82;33.00;;;8.50;99.90;;;;;;4990642;28;20034;-83
2021/12/16 11:14:35;;;;;;;139.68;30.83;;;8.50;99.90;;;;;;4973228;28;20050;-83
2021/12/16 11:17:05;;;;;;;169.10;31.63;;;8.50;99.90;;;;;;4990539;28;20112;-83
2021/12/16 11:19:44;;;;;;;110.28;30.63;;;8.50;99.90;;;;;;4973740;28;20049;-83
2021/12/16 11:22:12;;;;;;;110.55;29.20;;;8.50;99.90;;;;;;4973710;28;20559;-83
2021/12/16 11:24:39;;;;;;;104.00;28.55;;;8.50;99.90;;;;;;4990885;28;20049;-83
2021/12/16 11:27:30;;;;;;;132.18;29.05;;;9.00;99.90;;;;;;4974546;28;20050;-82
2021/12/16 11:29:59;;;;;;;111.57;29.20;;;8.20;99.90;;;;;;4990406;28;20442;-82
2021/12/16 11:32:37;;;;;;;108.13;29.88;;;9.30;99.90;;;;;;4989924;28;20092;-83
2021/12/16 11:35:23;;;;;;;84.35;27.75;;;8.60;99.90;;;;;;4974190;28;20489;-83
2021/12/16 11:37:49;;;;;;;120.85;30.20;;;8.50;99.90;;;;;;4971317;28;20042;-83
2021/12/16 11:40:16;;;;;;;92.57;28.40;;;8.90;99.90;;;;;;4970849;28;20490;-83
2021/12/16 11:42:42;;;;;;;138.70;31.23;;;8.60;99.90;;;;;;4970171;28;20049;-83
2021/12/16 11:45:08;;;;;;;99.88;27.90;;;8.80;99.90;;;;;;4971132;28;20042;-82
2021/12/16 11:47:45;;;;;;;118.28;29.17;;;8.60;99.90;;;;;;4953828;28;20125;-82
2021/12/16 11:50:11;;;;;;;109.53;29.02;;;8.60;99.90;;;;;;4970049;28;20538;-83
2021/12/16 11:52:39;;;;;;;123.65;31.13;;;8.70;99.90;;;;;;4954855;28;20134;-83
2021/12/16 11:55:06;;;;;;;96.63;26.38;;;8.80;99.90;;;;;;4972236;28;20053;-83
2021/12/16 11:57:37;;;;;;;115.05;26.08;;;8.60;99.90;;;;;;4956499;28;20133;-83
2021/12/16 12:00:19;;;;;;;128.43;30.40;;;8.60;99.90;;;;;;4974576;28;20047;-83
2021/12/16 12:02:53;;;;;;;118.10;27.25;;;8.60;99.90;;;;;;4973607;28;20046;-83
2021/12/16 12:05:26;;;;;;;87.78;25.88;;;8.60;99.90;;;;;;4974164;28;20391;-83
2021/12/16 12:07:56;;;;;;;117.20;26.35;;;8.50;99.90;;;;;;4958867;28;20034;-83
2021/12/16 12:10:41;;;;;;;111.40;27.05;;;8.50;99.90;;;;;;4957272;28;20813;-83
2021/12/16 12:13:13;;;;;;;121.10;27.63;;;8.60;99.90;;;;;;4990586;28;20046;-83
2021/12/16 12:16:03;;;;;;;128.32;27.55;;;8.50;99.90;;;;;;4990864;28;20406;-82
2021/12/16 12:18:37;;;;;;;119.03;27.02;;;8.50;99.90;;;;;;4974272;28;20054;-83
2021/12/16 12:21:20;;;;;;;113.88;28.65;;;8.50;99.90;;;;;;4983841;28;20121;-82
2021/12/16 12:23:47;;;;;;;126.65;27.50;;;8.50;99.90;;;;;;4984405;28;20042;-82
2021/12/16 12:26:16;;;;;;;96.97;25.80;;;8.50;99.90;;;;;;4982213;28;20070;-82
2021/12/16 12:28:48;;;;;;;116.82;28.75;;;8.50;99.90;;;;;;4967878;28;20045;-83
2021/12/16 12:31:17;;;;;;;145.97;30.83;;;8.60;99.90;;;;;;4965301;28;20129;-82
2021/12/16 12:33:43;;;;;;;79.03;27.52;;;8.60;99.90;;;;;;4982670;28;20305;-82
2021/12/16 12:36:09;;;;;;;89.57;28.98;;;8.60;99.90;;;;;;4992389;28;20082;-82
2021/12/16 12:38:36;;;;;;;103.07;28.83;;;8.60;99.90;;;;;;4964932;28;20069;-82
2021/12/16 12:41:04;;;;;;;109.47;32.17;;;8.70;99.90;;;;;;4981474;28;20046;-83
2021/12/16 12:43:33;;;;;;;110.20;34.85;;;8.60;99.90;;;;;;4973919;28;21024;-82
2021/12/16 12:46:00;;;;;;;110.47;34.03;;;8.60;99.90;;;;;;5006406;28;20380;-82
2021/12/16 12:48:26;;;;;;;94.18;32.17;;;8.60;99.90;;;;;;5005761;28;20050;-82
2021/12/16 12:50:57;;;;;;;109.10;33.67;;;9.00;99.90;;;;;;4957765;28;20125;-82
2021/12/16 12:53:31;;;;;;;83.00;30.40;;;8.60;99.90;;;;;;4956982;28;20042;-83
2021/12/16 12:56:10;;;;;;;62.60;26.70;;;8.80;99.90;;;;;;4967943;28;20055;-83
2021/12/16 12:58:59;;;;;;;77.45;28.00;;;8.60;99.90;;;;;;4956612;28;20049;-83
2021/12/16 13:01:39;;;;;;;79.15;27.98;;;8.60;99.90;;;;;;4938154;28;20085;-82
2021/12/16 13:04:12;;;;;;;64.15;25.92;;;8.60;99.90;;;;;;4953936;28;20054;-82
2021/12/16 13:07:06;;;;;;;65.25;26.52;;;8.60;99.90;;;;;;4952431;28;20055;-82
2021/12/16 13:09:39;;;;;;;64.30;25.92;;;8.60;99.90;;;;;;4938452;28;20043;-82
2021/12/16 13:12:25;;;;;;;;;;;8.60;99.90;;;;;;4938777;28;20043;-83
2021/12/16 13:15:01;;;;;;;63.10;24.92;;;8.70;99.90;;;;;;4953708;28;20376;-83
2021/12/16 13:23:26;;;;;;;63.45;23.98;;;8.60;99.90;;;;;;4985367;28;20129;-83
2021/12/16 13:23:38;;;;;;;79.18;25.80;;;8.60;99.90;;;;;;4953875;28;20252;-83
2021/12/16 13:29:05;;;;;;;68.30;25.52;;;8.60;99.90;;;;;;4952914;28;20102;-82
2021/12/16 13:31:46;;;;;;;99.15;27.42;;;8.60;99.90;;;;;;4970251;28;20043;-83
2021/12/16 13:34:26;;;;;;;89.43;27.95;;;9.10;99.90;;;;;;4937634;28;20042;-83
2021/12/16 13:36:57;;;;;;;90.20;27.20;;;8.70;99.90;;;;;;4953417;28;20089;-83
2021/12/16 13:39:26;;;;;;;84.75;27.08;;;9.20;99.90;;;;;;4964966;28;20042;-84
2021/12/16 13:42:04;;;;;;;77.95;25.30;;;8.90;99.90;;;;;;4962837;28;20030;-83
2021/12/16 13:44:43;;;;;;;64.35;21.77;;;8.70;99.90;;;;;;4963074;28;20086;-83
2021/12/16 13:47:22;;;;;;;64.93;24.25;;;8.60;99.90;;;;;;4952373;28;20142;-82
2021/12/16 14:03:27;;;;;;;78.05;24.95;;;8.70;99.90;;;;;;4990699;28;20049;-82
2021/12/16 14:06:15;;;;;;;92.40;25.63;;;8.70;99.90;;;;;;4976115;28;20049;-81
2021/12/16 14:08:45;;;;;;;75.78;24.10;;;8.80;99.90;;;;;;4975423;28;20156;-81
2021/12/16 14:12:02;;;;;;;59.15;20.65;;;8.70;99.90;;;;;;4975233;28;20050;-81
2021/12/16 14:17:29;;;;;;;59.63;19.20;;;8.80;99.90;;;;;;4990377;28;20141;-81
2021/12/16 14:23:11;;;;;;;40.33;14.30;;;8.70;99.90;;;;;;4991600;28;20187;-81
2021/12/16 14:26:14;;;;;;;47.03;14.57;;;8.70;99.90;;;;;;4986537;28;20054;-81
2021/12/16 14:36:59;;;;;;;41.95;13.55;;;8.70;99.90;;;;;;4972323;28;20051;-81
2021/12/16 14:42:20;;;;;;;53.47;15.55;;;8.70;99.90;;;;;;4972458;28;20519;-84
2021/12/16 14:47:57;;;;;;;46.58;15.88;;;8.60;99.90;;;;;;4990099;28;20049;-81
2021/12/16 14:50:27;;;;;;;35.92;12.88;;;8.70;99.90;;;;;;4982621;28;20041;-81
2021/12/16 14:52:55;;;;;;;35.70;12.48;;;8.70;99.90;;;;;;4964122;28;20505;-82
2021/12/16 14:55:21;;;;;;;29.75;10.52;;;8.60;99.90;;;;;;4985444;28;20618;-85
2021/12/16 14:57:52;;;;;;;43.60;12.95;;;8.60;99.90;;;;;;4972838;28;20042;-82
2021/12/16 15:00:29;;;;;;;36.42;11.93;;;8.60;99.90;;;;;;4971294;28;20102;-82
2021/12/16 15:03:04;;;;;;;43.10;12.77;;;8.60;99.90;;;;;;4987277;28;20128;-82
2021/12/16 15:05:39;;;;;;;53.33;16.70;;;8.50;99.90;;;;;;4987334;28;20587;-82
2021/12/16 15:08:10;;;;;;;51.30;15.77;;;8.50;99.90;;;;;;4971495;28;20054;-82
2021/12/16 15:10:37;;;;;;;51.47;15.70;;;8.50;99.90;;;;;;4971605;28;20115;-81
2021/12/16 15:13:10;;;;;;;73.68;18.02;;;8.70;99.90;;;;;;4970895;28;20529;-82
2021/12/16 15:15:47;;;;;;;;;;;8.50;99.90;;;;;;4971972;28;20490;-82
2021/12/16 15:33:39;;;;;;;99.15;21.52;;;8.40;99.90;;;;;;4979888;28;20705;-81
2021/12/16 15:37:41;;;;;;;93.45;22.35;;;8.40;99.90;;;;;;4980539;28;20050;-83
2021/12/16 15:40:28;;;;;;;113.30;22.95;;;8.90;99.90;;;;;;4965395;28;20104;-81
2021/12/16 15:42:57;;;;;;;119.47;24.33;;;8.40;99.90;;;;;;4963878;28;20034;-82
2021/12/16 15:45:37;;;;;;;82.38;21.00;;;8.40;99.90;;;;;;4989209;28;20457;-82
2021/12/16 15:48:13;;;;;;;96.03;21.95;;;8.40;99.90;;;;;;4963809;28;20532;-81
2021/12/16 15:50:41;;;;;;;60.40;19.23;;;8.30;99.90;;;;;;4964252;28;20046;-81